Latest Weather Observations for South Channel Island

IDV60801

Issued at 8:31 pm EDT Tuesday 9 February 2016 (issued every 30 minutes, with the page automatically refreshed every 10 minutes)

About weather observations | Map of weather stations | Latest weather observations for VIC | Other Formats
Station Details ID: 086344 Name: SOUTH CHANNEL ISLAND Lat: -38.31 Lon: 144.80 Height: 9.0 m
Data from the previous 72 hours. | See also: Recent months for locations in Victoria
Date/Time
EDT
Temp
°C
App
Temp
°C
Dew
Point
Rel
Hum
%
Delta-T
°C
Wind Press
QNH
hPa
Press
MSL
hPa
Rain
since 9 am
mm
Dir
 
Spd
km/h
Gust
km/h
Spd
kts
Gust
kts
09/08:30pm - - - - - S 24 30 13 16 - - -
09/08:00pm - - - - - S 32 35 17 19 - - -
09/07:30pm - - - - - S 30 33 16 18 - - -
09/07:00pm - - - - - S 30 33 16 18 - - -
09/06:30pm - - - - - S 30 35 16 19 - - -
09/06:00pm - - - - - S 32 37 17 20 - - -
09/05:30pm - - - - - S 32 35 17 19 - - -
09/05:00pm - - - - - S 30 33 16 18 - - -
09/04:30pm - - - - - SSW 30 35 16 19 - - -
09/04:00pm - - - - - SSW 32 37 17 20 - - -
09/03:30pm - - - - - SSW 30 33 16 18 - - -
09/03:00pm - - - - - SSW 30 32 16 17 - - -
09/02:30pm - - - - - SSW 28 32 15 17 - - -
09/02:00pm - - - - - SSW 28 32 15 17 - - -
09/01:30pm - - - - - SSW 28 32 15 17 - - -
09/01:00pm - - - - - SSW 28 33 15 18 - - -
09/12:30pm - - - - - SSW 26 30 14 16 - - -
09/12:00pm - - - - - SSW 24 28 13 15 - - -
09/11:30am - - - - - SSW 22 28 12 15 - - -
09/11:00am - - - - - SSW 17 22 9 12 - - -
09/10:30am - - - - - SSW 19 26 10 14 - - -
09/10:00am - - - - - SSE 15 20 8 11 - - -
09/09:30am - - - - - SSE 9 11 5 6 - - -
09/09:00am - - - - - SSE 11 15 6 8 - - -
09/08:30am - - - - - SSE 11 17 6 9 - - -
09/08:00am - - - - - SE 9 15 5 8 - - -
09/07:30am - - - - - S 19 26 10 14 - - -
09/07:00am - - - - - S 15 22 8 12 - - -
09/06:30am - - - - - S 15 20 8 11 - - -
09/06:00am - - - - - SSE 17 24 9 13 - - -
09/05:30am - - - - - S 20 26 11 14 - - -
09/05:00am - - - - - SSE 22 28 12 15 - - -
09/04:30am - - - - - SSW 22 30 12 16 - - -
09/04:00am - - - - - S 22 28 12 15 - - -
09/03:30am - - - - - S 19 20 10 11 - - -
09/03:00am - - - - - S 22 32 12 17 - - -
09/02:30am - - - - - S 22 28 12 15 - - -
09/02:00am - - - - - S 26 32 14 17 - - -
09/01:30am - - - - - S 26 30 14 16 - - -
09/01:00am - - - - - S 24 30 13 16 - - -
09/12:30am - - - - - S 22 28 12 15 - - -
09/12:00am - - - - - S 24 32 13 17 - - -
 
Date/Time
EDT
Temp
°C
App
Temp
°C
Dew
Point
Rel
Hum
%
Delta-T
°C
Wind Press
QNH
hPa
Press
MSL
hPa
Rain
since 9 am
mm
Dir
 
Spd
km/h
Gust
km/h
Spd
kts
Gust
kts
08/11:30pm - - - - - S 28 33 15 18 - - -
08/11:00pm - - - - - S 30 35 16 19 - - -
08/10:30pm - - - - - SSW 33 39 18 21 - - -
08/10:00pm - - - - - SSW 35 41 19 22 - - -
08/09:30pm - - - - - S 35 39 19 21 - - -
08/09:00pm - - - - - SSW 33 41 18 22 - - -
08/08:30pm - - - - - SSW 33 39 18 21 - - -
08/08:00pm - - - - - SSW 32 37 17 20 - - -
08/07:30pm - - - - - SSW 30 37 16 20 - - -
08/07:00pm - - - - - SSW 30 41 16 22 - - -
08/06:30pm - - - - - S 30 37 16 20 - - -
08/06:00pm - - - - - SSW 32 37 17 20 - - -
08/05:30pm - - - - - S 30 39 16 21 - - -
08/05:00pm - - - - - SSW 30 39 16 21 - - -
08/04:30pm - - - - - SSW 24 30 13 16 - - -
08/04:00pm - - - - - SSW 24 32 13 17 - - -
08/03:30pm - - - - - SSW 30 35 16 19 - - -
08/03:00pm - - - - - SSW 30 37 16 20 - - -
08/02:30pm - - - - - SSW 30 35 16 19 - - -
08/02:00pm - - - - - SSW 30 35 16 19 - - -
08/01:30pm - - - - - SSW 30 33 16 18 - - -
08/01:00pm - - - - - SSW 22 32 12 17 - - -
08/12:30pm - - - - - SW 28 33 15 18 - - -
08/12:00pm - - - - - SSW 24 33 13 18 - - -
08/11:30am - - - - - SSW 26 33 14 18 - - -
08/11:00am - - - - - SSW 26 33 14 18 - - -
08/10:30am - - - - - SSW 22 28 12 15 - - -
08/10:00am - - - - - SSW 24 32 13 17 - - -
08/09:30am - - - - - SSW 28 32 15 17 - - -
08/09:00am - - - - - SSW 22 28 12 15 - - -
08/08:30am - - - - - SSW 26 30 14 16 - - -
08/08:00am - - - - - SW 19 24 10 13 - - -
08/07:30am - - - - - SSW 20 24 11 13 - - -
08/07:00am - - - - - SSW 22 28 12 15 - - -
08/06:30am - - - - - SSW 24 28 13 15 - - -
08/06:00am - - - - - SSW 22 26 12 14 - - -
08/05:30am - - - - - SW 19 24 10 13 - - -
08/05:00am - - - - - SW 22 26 12 14 - - -
08/04:30am - - - - - SSW 30 35 16 19 - - -
08/04:00am - - - - - SW 24 28 13 15 - - -
08/03:30am - - - - - SW 24 28 13 15 - - -
08/03:00am - - - - - SW 22 26 12 14 - - -
08/02:30am - - - - - SW 24 28 13 15 - - -
08/02:00am - - - - - SW 28 30 15 16 - - -
08/01:30am - - - - - SSW 30 35 16 19 - - -
08/01:00am - - - - - SW 32 37 17 20 - - -
08/12:30am - - - - - SW 32 35 17 19 - - -
08/12:00am - - - - - SW 30 33 16 18 - - -
 
Date/Time
EDT
Temp
°C
App
Temp
°C
Dew
Point
Rel
Hum
%
Delta-T
°C
Wind Press
QNH
hPa
Press
MSL
hPa
Rain
since 9 am
mm
Dir
 
Spd
km/h
Gust
km/h
Spd
kts
Gust
kts
07/11:30pm - - - - - SW 30 35 16 19 - - -
07/11:00pm - - - - - SW 32 37 17 20 - - -
07/10:30pm - - - - - SSW 30 35 16 19 - - -
07/10:00pm - - - - - SSW 26 32 14 17 - - -
07/09:30pm - - - - - SSW 26 32 14 17 - - -
07/09:00pm - - - - - SSW 32 35 17 19 - - -
07/08:30pm - - - - - SSW 35 41 19 22 - - -
07/08:00pm - - - - - SSW 33 37 18 20 - - -
07/07:30pm - - - - - SSW 32 37 17 20 - - -
07/07:00pm - - - - - SSW 32 35 17 19 - - -
07/06:30pm - - - - - SSW 32 35 17 19 - - -
07/06:00pm - - - - - SSW 33 37 18 20 - - -
07/05:30pm - - - - - SSW 30 33 16 18 - - -
07/05:00pm - - - - - SSW 33 35 18 19 - - -
07/04:30pm - - - - - SSW 35 41 19 22 - - -
07/04:00pm - - - - - SSW 35 43 19 23 - - -
07/03:30pm - - - - - SSW 28 30 15 16 - - -
07/03:00pm - - - - - S 22 26 12 14 - - -
07/02:30pm - - - - - SSW 26 28 14 15 - - -
07/02:00pm - - - - - SSW 30 32 16 17 - - -
07/01:30pm - - - - - SW 32 35 17 19 - - -
07/01:00pm - - - - - SW 24 28 13 15 - - -
07/12:30pm - - - - - SW 19 22 10 12 - - -
07/12:00pm - - - - - WSW 13 15 7 8 - - -
07/11:30am - - - - - SW 17 19 9 10 - - -
07/11:00am - - - - - SW 17 19 9 10 - - -
07/10:30am - - - - - SW 19 20 10 11 - - -
07/10:00am - - - - - SW 20 24 11 13 - - -
07/09:30am - - - - - WSW 17 26 9 14 - - -
07/09:00am - - - - - S 7 7 4 4 - - -
07/08:30am - - - - - SSW 7 9 4 5 - - -
07/08:00am - - - - - NE 9 9 5 5 - - -
07/07:30am - - - - - ENE 13 15 7 8 - - -
07/07:00am - - - - - ENE 15 15 8 8 - - -
07/06:30am - - - - - E 11 13 6 7 - - -
07/06:00am - - - - - ENE 9 11 5 6 - - -
07/05:30am - - - - - NE 11 13 6 7 - - -
07/05:00am - - - - - ENE 13 15 7 8 - - -
07/04:30am - - - - - ENE 17 19 9 10 - - -
07/04:00am - - - - - ENE 17 20 9 11 - - -
07/03:30am - - - - - NE 26 28 14 15 - - -
07/03:00am - - - - - ENE 26 30 14 16 - - -
07/02:30am - - - - - ENE 32 33 17 18 - - -
07/02:00am - - - - - ENE 28 32 15 17 - - -
07/01:30am - - - - - E 28 32 15 17 - - -
07/01:00am - - - - - ENE 28 33 15 18 - - -
07/12:30am - - - - - E 30 33 16 18 - - -
07/12:00am - - - - - E 32 35 17 19 - - -
 
Date/Time
EDT
Temp
°C
App
Temp
°C
Dew
Point
Rel
Hum
%
Delta-T
°C
Wind Press
QNH
hPa
Press
MSL
hPa
Rain
since 9 am
mm
Dir
 
Spd
km/h
Gust
km/h
Spd
kts
Gust
kts
06/11:30pm - - - - - E 32 35 17 19 - - -
06/11:00pm - - - - - E 28 32 15 17 - - -
06/10:30pm - - - - - E 26 32 14 17 - - -
06/10:00pm - - - - - ESE 26 32 14 17 - - -
06/09:30pm - - - - - SSE 20 24 11 13 - - -
06/09:00pm - - - - - SSE 22 24 12 13 - - -

Other Formats:

Comma delimited format used in spreadsheet applications
http://www.bom.gov.au/fwo/IDV60801/IDV60801.94853.axf

JavaScript Object Notation format (JSON) in row-major order
http://www.bom.gov.au/fwo/IDV60801/IDV60801.94853.json